Tiempo atmosférico en la estación meteorológica de Fuencaliente, Ciudad Real (640 m.)



Fecha
DESCASC
Temp. máxima en grados centígrados (hora)
DESCASC
Temp. mínima en grados centígrados (hora)
DESCASC
Temp. media en grados centígrados
DESCASC
Racha de viento máxima en m/sg (hora)
DESCASC
Velocidad máxima media en intervalos de 10 minutos(hora)
DESCASC
Precipitaciones diarias en mm
DESCASC
Precipitaciones de 00:00 a 06:00 en mm
DESCASC
Precipitaciones de 06:00 a 12:00 en mm
DESCASC
Precipitaciones de 12:00 a 18:00 en mm
DESCASC
Precipitaciones de 18:00 a 24:00 en mm
DESCASC
21-02-2019 18.2 (15:50) 2.3 (06:10) 10.3 5.28 (14:40) 3.06 (13:50) 0 0 0 0 0
20-02-2019 17.2 (15:30) 1.9 (08:10) 9.6 4.72 (14:50) 2.5 (14:50) 0 0 0 0 0
19-02-2019 15.4 (16:00) 2.6 (03:20) 9 5 (17:10) 2.78 (18:20) 0 0 0 0 0
18-02-2019 15.8 (16:30) 2.2 (08:00) 9 3.89 (13:30) 2.5 (13:50) 0 0 0 0 0
17-02-2019 17.6 (16:00) 0.4 (00:00) 9 5.28 (15:00) 2.78 (12:50) 0 0 0 0 0
16-02-2019 18.6 (16:00) 3 (00:00) 10.8 8.06 (14:30) 4.44 (13:40) 0 0 0 0 0
15-02-2019 20 (15:50) 1.2 (00:00) 10.6 6.94 (18:00) 4.17 (17:30) 0 0 0 0 0
14-02-2019 17.6 (16:40) 1 (00:00) 9.3 4.44 (13:20) 2.78 (15:40) 0 0 0 0 0
13-02-2019 17.9 (16:00) 1.8 (00:00) 9.8 5 (15:10) 2.78 (14:30) 0.2 0 0 0.2 0
12-02-2019 16.8 (15:20) 2.6 (00:00) 9.7 6.67 (01:40) 3.33 (01:40) 0.2 0 0.2 0 0
11-02-2019 15.7 (14:20) 5.5 (00:00) 10.6 5.83 (14:30) 2.78 (12:50) 0.4 0 0.2 0.2 0
10-02-2019 12.3 (14:00) 1.5 (00:00) 6.9 6.94 (13:50) 3.33 (14:30) 0 0 0 0 0
09-02-2019 17.3 (15:30) 0.8 (00:00) 9 5.28 (15:30) 3.06 (16:30) 0 0 0 0 0
08-02-2019 18.1 (15:30) 0 (00:00) 9.1 6.39 (13:30) 3.33 (14:00) 0 0 0 0 0
07-02-2019 18.2 (16:20) 2.1 (00:00) 10.2 6.94 (12:40) 3.61 (15:40) 0 0 0 0 0
06-02-2019 19.1 (16:30) 2.3 (00:00) 10.7 4.44 (15:30) 2.78 (15:30) 0 0 0 0 0
05-02-2019 17.1 (14:10) 1.2 (00:00) 9.2 6.11 (15:20) 3.06 (15:10) 0 0 0 0 0
04-02-2019 14.8 (16:20) -3.5 (-00:0) 5.7 5 (09:20) 2.5 (09:20) 0 0 0 0 0
03-02-2019 9.9 (15:30) -2.9 (-00:0) 3.5 9.44 (12:10) 3.89 (12:20) 0.7 0 0.5 0.2 0
02-02-2019 9.1 (15:40) 2.2 (00:00) 5.7 10.28 (00:20) 3.89 (02:00) 0 0 0 0 0
01-02-2019 10.4 (05:00) 3.8 (00:00) 7.1 16.67 (16:50) 7.78 (16:50) 21.7 16 3.2 1.4 1.1
31-01-2019 10.7 (17:10) 7.9 (00:00) 9.3 17.22 (23:00) 6.11 (23:59) 25.4 15.2 7.8 0.8 1.6
30-01-2019 10.4 (15:20) 4.3 (00:00) 7.3 10.83 (03:50) 4.72 (19:00) 8.2 0.4 0.2 0 7.6
29-01-2019 10.8 (12:50) 1.8 (00:00) 6.3 10.83 (20:10) 4.72 (20:10) 0 0 0 0 0
28-01-2019 12.1 (14:20) -1.3 (-00:0) 5.4 10 (20:30) 3.61 (15:10) 0 0 0 0 0
27-01-2019 12.5 (14:50) 0.7 (00:00) 6.6 9.17 (13:50) 3.89 (14:00) 0 0 0 0 0
26-01-2019 18.3 (16:10) 2.6 (00:00) 10.4 8.89 (03:50) 3.89 (03:40) 0 0 0 0 0
25-01-2019 16.9 (16:00) 4.1 (00:00) 10.5 7.78 (14:10) 4.17 (10:20) 0 0 0 0 0
24-01-2019 16.5 (15:10) 4.3 (00:00) 10.4 7.5 (10:40) 4.44 (10:40) 0 0 0 0 0

Gráficas

Temp. máximas Temp. mínimas Temp. medias Precipitaciones Rachas de viento máximas Velocidades máximas media en intervalos de 10 minutos

Datos horarios

Fecha y hora oficial Temperatura (ºC) Velocidad del viento (km/h) Dirección del viento Racha (km/h) Dirección de racha Precipitación (mm) Presión (hPa) Tendencia (hPa) Humedad (%)
2019-02-22 23:00:00 4.7 0 Calma 4 Este 0 -- -- 67
2019-02-22 22:00:00 5.6 0 Calma 2 Oeste 0 -- -- 63
2019-02-22 21:00:00 6.6 0 Calma 3 Nordeste 0 -- -- 58
2019-02-22 20:00:00 8.4 0 Calma 4 Nordeste 0 -- -- 56
2019-02-22 19:00:00 12.9 0 Calma 6 Sudoeste 0 -- -- 44
2019-02-22 18:00:00 19.6 4 Sudoeste 12 Sur 0 -- -- 30
2019-02-22 17:00:00 20.1 5 Sur 18 Sudoeste 0 -- -- 22
2019-02-22 16:00:00 20.4 7 Sudoeste 16 Sudeste 0 -- -- 22
2019-02-22 15:00:00 19.8 8 Sur 19 Sur 0 -- -- 24
2019-02-22 14:00:00 19.3 10 Sur 19 Sur 0 -- -- 23
2019-02-22 13:00:00 18.4 12 Sur 19 Sur 0 -- -- 32
2019-02-22 12:00:00 16.5 5 Sudeste 13 Sudeste 0 -- -- 44
2019-02-22 11:00:00 15.4 4 Sur 6 Sudeste 0 -- -- 43
2019-02-22 10:00:00 9.8 0 Calma 2 Sudoeste 0 -- -- 70
2019-02-22 09:00:00 3.7 0 Calma 2 Este 0 -- -- 82
2019-02-22 08:00:00 1.7 0 Calma 4 Nordeste 0 -- -- 79
2019-02-22 07:00:00 1.8 0 Calma 2 Nordeste 0 -- -- 79
2019-02-22 06:00:00 1.9 0 Calma 2 Nordeste 0 -- -- 79
2019-02-22 05:00:00 2.5 0 Calma 3 Este 0 -- -- 77
2019-02-22 04:00:00 2.9 0 Calma 4 Este 0 -- -- 76
2019-02-22 03:00:00 3.4 0 Calma 3 Este 0 -- -- 74
2019-02-22 02:00:00 3.7 0 Calma 2 Este 0 -- -- 73
2019-02-22 01:00:00 4.3 0 Calma 3 Nordeste 0 -- -- 73
2019-02-22 00:00:00 4.5 0 Calma 2 Este 0 -- -- 71
2019-02-21 23:00:00 4.8 0 Calma 3 Este 0 -- -- 70
2019-02-21 22:00:00 5.2 0 Calma 2 Nordeste 0 -- -- 69
2019-02-21 21:00:00 6.1 0 Calma 2 Nordeste 0 -- -- 67
2019-02-21 20:00:00 7.9 0 Calma 5 Nordeste 0 -- -- 64
2019-02-21 19:00:00 12.1 0 Calma 8 Sur 0 -- -- 48
2019-02-21 18:00:00 17.1 4 Sur 14 Sur 0 -- -- 33
2019-02-21 17:00:00 17.8 7 Sur 15 Sur 0 -- -- 33
2019-02-21 16:00:00 18 8 Sur 16 Sudoeste 0 -- -- 38
2019-02-21 15:00:00 17.5 7 Sudeste 19 Sudeste 0 -- -- 34
2019-02-21 14:00:00 17.1 9 Sur 17 Sur 0 -- -- 35
2019-02-21 13:00:00 16.5 7 Sur 14 Sudeste 0 -- -- 44
2019-02-21 12:00:00 14.8 7 Sur 13 Sur 0 -- -- 54
2019-02-21 11:00:00 13.9 4 Sur 9 Sudeste 0 -- -- 56
2019-02-21 10:00:00 9.1 0 Calma 4 Nordeste 0 -- -- 81
2019-02-21 09:00:00 3.4 0 Calma 3 Nordeste 0 -- -- 94
2019-02-21 08:00:00 2.5 0 Calma 3 Este 0 -- -- 91
2019-02-21 07:00:00 2.5 0 Calma 2 Nordeste 0 -- -- 90
2019-02-21 06:00:00 2.5 0 Calma 2 Nordeste 0 -- -- 89
2019-02-21 05:00:00 2.8 0 Calma 2 Este 0 -- -- 86
2019-02-21 04:00:00 3.1 0 Calma 2 Nordeste 0 -- -- 85
2019-02-21 03:00:00 3.2 0 Calma 3 Nordeste 0 -- -- 82
2019-02-21 02:00:00 3.9 0 Calma 3 Oeste 0 -- -- 81
2019-02-21 01:00:00 5.1 0 Calma 5 Sur 0 -- -- 78
2019-02-21 00:00:00 5.4 0 Calma 5 Nordeste 0 -- -- 79
2019-02-20 23:00:00 5.9 2 Nordeste 5 Nordeste 0 -- -- 79
2019-02-20 22:00:00 5.8 0 Calma 4 Este 0 -- -- 82
2019-02-20 21:00:00 6.9 0 Calma 4 Nordeste 0 -- -- 78
2019-02-20 20:00:00 8.7 0 Calma 11 Norte 0 -- -- 71
2019-02-20 19:00:00 12.7 5 Norte 10 Norte 0 -- -- 56
2019-02-20 18:00:00 14.8 3 Noroeste 13 Noroeste 0 -- -- 51
2019-02-20 17:00:00 15.5 2 Noroeste 14 Oeste 0 -- -- 49
2019-02-20 16:00:00 15.9 8 Noroeste 17 Oeste 0 -- -- 49
2019-02-20 15:00:00 16.9 6 Oeste 17 Sudoeste 0 -- -- 48
2019-02-20 14:00:00 15.9 9 Sudoeste 16 Sudoeste 0 -- -- 52
2019-02-20 13:00:00 14.9 7 Sur -- -- -- -- -- 57
2019-02-20 12:00:00 13.3 5 Sur 12 Sur 0 -- -- 61
2019-02-20 11:00:00 12 4 Sur 7 Sur 0 -- -- 65
2019-02-20 10:00:00 7.9 0 Calma 2 Sudoeste 0 -- -- 84
2019-02-20 09:00:00 3.2 0 Calma 3 Nordeste 0 -- -- 95
2019-02-20 08:00:00 2 0 Calma 2 Sur 0 -- -- 92
2019-02-20 07:00:00 2.8 0 Calma 4 Nordeste 0 -- -- 91
2019-02-20 06:00:00 3 0 Calma 4 Este 0 -- -- 91
2019-02-20 05:00:00 3.4 0 Calma 8 Norte 0 -- -- 89
2019-02-20 04:00:00 3.5 0 Calma 5 Norte 0 -- -- 89
2019-02-20 03:00:00 3.3 2 Norte 10 Nordeste 0 -- -- 90
2019-02-20 02:00:00 3.7 0 Calma 3 Este 0 -- -- 90
2019-02-20 01:00:00 4.3 0 Calma 4 Nordeste 0 -- -- 86
2019-02-20 00:00:00 5.8 0 Calma 8 Nordeste 0 -- -- 82
2019-02-19 23:00:00 8.7 2 Sudeste 13 Noroeste 0 -- -- 73
2019-02-19 22:00:00 9.3 8 Noroeste 15 Noroeste 0 -- -- 71
2019-02-19 21:00:00 10.4 5 Nordeste 15 Noroeste 0 -- -- 62
2019-02-19 20:00:00 10 7 Nordeste 14 Nordeste 0 -- -- 69
2019-02-19 19:00:00 10.7 5 Norte 17 Nordeste 0 -- -- 67
2019-02-19 18:00:00 12.5 9 Nordeste 18 Este 0 -- -- 56
2019-02-19 17:00:00 13.3 9 Nordeste 16 Nordeste 0 -- -- 52
2019-02-19 16:00:00 15.4 6 Sur 14 Sur 0 -- -- 51
2019-02-19 15:00:00 14.1 5 Sur 13 Sur 0 -- -- 58
2019-02-19 14:00:00 13.1 3 Sudoeste 8 Sur 0 -- -- 59
2019-02-19 13:00:00 12.6 3 Sudoeste 8 Oeste 0 -- -- 58
2019-02-19 12:00:00 10.2 2 Oeste 5 Sudoeste 0 -- -- 70
2019-02-19 11:00:00 8.4 3 Oeste 10 Sudeste 0 -- -- 73
2019-02-19 10:00:00 6.8 10 Sudeste 15 Sudeste 0 -- -- 79
2019-02-19 09:00:00 5.1 0 Calma 5 Noroeste 0 -- -- 84
2019-02-19 08:00:00 4.3 0 Calma 5 Sudoeste 0 -- -- 88
2019-02-19 07:00:00 4.1 0 Calma 3 Nordeste 0 -- -- 86
2019-02-19 06:00:00 4.5 0 Calma 4 Nordeste 0 -- -- 86
2019-02-19 05:00:00 4.2 0 Calma 3 Nordeste 0 -- -- 86
2019-02-19 04:00:00 3.6 0 Calma 3 Nordeste 0 -- -- 87
2019-02-19 03:00:00 2.7 0 Calma 3 Nordeste 0 -- -- 84
2019-02-19 02:00:00 2.9 0 Calma 3 Nordeste 0 -- -- 83
2019-02-19 01:00:00 3.5 0 Calma 3 Este 0 -- -- 80
2019-02-19 00:00:00 4.2 0 Calma 4 Este 0 -- -- 80
2019-02-18 23:00:00 5.2 0 Calma 4 Nordeste 0 -- -- 76
2019-02-18 22:00:00 7.8 0 Calma 9 Norte 0 -- -- 66
2019-02-18 21:00:00 7.2 0 Calma 4 Nordeste 0 -- -- 71
2019-02-18 20:00:00 8.8 0 Calma 7 Norte 0 -- -- 65
2019-02-18 19:00:00 12.8 2 Norte 7 Noroeste 0 -- -- 54
2019-02-18 18:00:00 14.9 0 Calma 5 Sur 0 -- -- 49
2019-02-18 17:00:00 15.4 3 Sudoeste 8 Sudoeste 0 -- -- 37
2019-02-18 16:00:00 15.6 4 Sudoeste 11 Sur 0 -- -- 35
2019-02-18 15:00:00 15.3 4 Sudoeste 13 Sudoeste 0 -- -- 37
2019-02-18 14:00:00 14.9 8 Sur 14 Sur 0 -- -- 39
2019-02-18 13:00:00 14.4 6 Sur 10 Sur 0 -- -- 42
2019-02-18 12:00:00 13.8 4 Sur 9 Sur 0 -- -- 47
2019-02-18 11:00:00 12.2 0 Calma 4 Sur 0 -- -- 55
2019-02-18 10:00:00 7 0 Calma 3 Noroeste 0 -- -- 84
2019-02-18 09:00:00 2.8 0 Calma 2 Este 0 -- -- 93
2019-02-18 08:00:00 2.2 0 Calma 3 Este 0 -- -- 91
2019-02-18 07:00:00 2.3 0 Calma 0 Calma 0 -- -- 92
2019-02-18 06:00:00 2.3 0 Calma 3 Noroeste 0 -- -- 91
2019-02-18 05:00:00 2.8 0 Calma 2 Este 0 -- -- 90
2019-02-18 04:00:00 3 0 Calma 4 Nordeste 0 -- -- 87
2019-02-18 03:00:00 3.1 0 Calma 2 Nordeste 0 -- -- 85
2019-02-18 02:00:00 3.8 0 Calma 3 Nordeste 0 -- -- 83
2019-02-18 01:00:00 4.1 0 Calma 2 Nordeste 0 -- -- 82
2019-02-18 00:00:00 3.8 0 Calma 3 Nordeste 0 -- -- 83
2019-02-17 23:00:00 4.1 0 Calma 4 Nordeste 0 -- -- 74
2019-02-17 22:00:00 4.5 0 Calma 4 Este 0 -- -- 70
2019-02-17 21:00:00 5.3 0 Calma 3 Este 0 -- -- 68
2019-02-17 20:00:00 7.1 0 Calma 3 Nordeste 0 -- -- 64
2019-02-17 19:00:00 11 0 Calma 13 Sudoeste 0 -- -- 48
2019-02-17 18:00:00 15.9 5 Sur 13 Sur 0 -- -- 31
2019-02-17 17:00:00 17.1 9 Sur 17 Sudoeste 0 -- -- 29
2019-02-17 16:00:00 17.6 10 Sudoeste 18 Sudoeste 0 -- -- 32
2019-02-17 15:00:00 17.1 7 Sur 19 Sur 0 -- -- 30
2019-02-17 14:00:00 16.4 9 Sur 19 Sur 0 -- -- 29
2019-02-17 13:00:00 15.4 10 Sur 18 Sudoeste 0 -- -- 30
2019-02-17 12:00:00 14.6 7 Sur 12 Sudeste 0 -- -- 31
2019-02-17 11:00:00 13.4 4 Sur 6 Sur 0 -- -- 39
2019-02-17 10:00:00 7.2 0 Calma 3 Sur 0 -- -- 68
2019-02-17 09:00:00 1.2 0 Calma 4 Nordeste 0 -- -- 83
2019-02-17 08:00:00 0.8 0 Calma 4 Sur 0 -- -- 81
2019-02-17 07:00:00 1 0 Calma 4 Sudoeste 0 -- -- 83
2019-02-17 06:00:00 1.5 0 Calma 4 Nordeste 0 -- -- 86
2019-02-17 05:00:00 1.8 0 Calma 2 Este 0 -- -- 88
2019-02-17 04:00:00 2.1 0 Calma 3 Nordeste 0 -- -- 85
2019-02-17 03:00:00 2.2 0 Calma 2 Nordeste 0 -- -- 83
2019-02-17 02:00:00 2.8 0 Calma 2 Nordeste 0 -- -- 78
2019-02-17 01:00:00 3.2 0 Calma 3 Nordeste 0 -- -- 76
2019-02-17 00:00:00 3.8 0 Calma 3 Nordeste 0 -- -- 71
2019-02-16 23:00:00 5 0 Calma 5 Nordeste 0 -- -- 66
2019-02-16 22:00:00 6.3 4 Noroeste 8 Norte 0 -- -- 61
2019-02-16 21:00:00 7 2 Norte 8 Nordeste 0 -- -- 59
2019-02-16 20:00:00 8 0 Calma 3 Sudeste 0 -- -- 62
2019-02-16 19:00:00 11.7 2 Nordeste 13 Sur 0 -- -- 48
2019-02-16 18:00:00 17.3 9 Sur 26 Sudeste 0 -- -- 29
2019-02-16 17:00:00 18.3 9 Sudeste 23 Sur 0 -- -- 32
2019-02-16 16:00:00 18.6 8 Sur 25 Sudoeste 0 -- -- 28
2019-02-16 15:00:00 17.9 12 Sur 29 Sur 0 -- -- 32
2019-02-16 14:00:00 17.5 13 Sur 26 Sur 0 -- -- 30
2019-02-16 13:00:00 16.9 11 Sur 25 Sur 0 -- -- 31
2019-02-16 12:00:00 15.7 12 Sur 26 Sur 0 -- -- 33
2019-02-16 11:00:00 15 9 Sur 20 Sudoeste 0 -- -- 35
2019-02-16 10:00:00 11.3 2 Este 12 Sur 0 -- -- 52
2019-02-16 09:00:00 6.5 0 Calma 10 Sudeste 0 -- -- 69
2019-02-16 08:00:00 5.9 2 Norte 8 Sudeste 0 -- -- 68
2019-02-16 07:00:00 3.9 3 Sudeste 14 Nordeste 0 -- -- 77
2019-02-16 06:00:00 3.2 0 Calma 5 Este 0 -- -- 82
2019-02-16 05:00:00 3.7 0 Calma 6 Sur 0 -- -- 84
2019-02-16 04:00:00 4.1 3 Nordeste 8 Nordeste 0 -- -- 86
2019-02-16 03:00:00 4.1 0 Calma 5 Nordeste 0 -- -- 84
2019-02-16 02:00:00 4.2 0 Calma 3 Nordeste 0 -- -- 80
2019-02-16 01:00:00 4.9 0 Calma 5 Nordeste 0 -- -- 78
2019-02-16 00:00:00 6.2 0 Calma 9 Sudoeste 0 -- -- 72
2019-02-15 23:00:00 9.9 4 Norte 18 Norte 0 -- -- 57
2019-02-15 22:00:00 11.1 10 Norte 16 Norte 0 -- -- 54
2019-02-15 21:00:00 11.8 6 Norte 18 Norte 0 -- -- 53
2019-02-15 20:00:00 12.1 8 Norte 21 Nordeste 0 -- -- 52
2019-02-15 19:00:00 13.4 12 Nordeste 23 Nordeste 0 -- -- 49
2019-02-15 18:00:00 16.2 13 Nordeste 25 Nordeste 0 -- -- 43
2019-02-15 17:00:00 18.6 10 Nordeste 23 Nordeste 0 -- -- 37
2019-02-15 16:00:00 19.9 6 Sur 15 Sudoeste 0 -- -- 33
2019-02-15 15:00:00 19.4 4 Sudoeste 12 Sudeste 0 -- -- 38
2019-02-15 14:00:00 18.8 8 Sur 13 Sudoeste 0 -- -- 41
2019-02-15 13:00:00 17 4 Sudoeste 10 Sur 0 -- -- 52
2019-02-15 12:00:00 15.2 8 Sudeste 10 Sudeste 0 -- -- 56
2019-02-15 11:00:00 14.3 2 Sur 5 Sudeste 0 -- -- 53
2019-02-15 10:00:00 7.6 0 Calma 4 Este 0 -- -- 80
2019-02-15 09:00:00 2 2 Nordeste 4 Nordeste 0 -- -- 94
2019-02-15 08:00:00 1.5 0 Calma 3 Nordeste 0 -- -- 91
2019-02-15 07:00:00 1.4 0 Calma 3 Este 0 -- -- 92
2019-02-15 06:00:00 1.2 0 Calma 4 Nordeste 0 -- -- 90
2019-02-15 05:00:00 1.8 0 Calma 2 Nordeste 0 -- -- 89
2019-02-15 04:00:00 1.8 0 Calma 2 Nordeste 0 -- -- 88
2019-02-15 03:00:00 2.2 0 Calma 2 Nordeste 0 -- -- 84
2019-02-15 02:00:00 2.6 0 Calma 2 Nordeste 0 -- -- 84
2019-02-15 01:00:00 3.3 0 Calma 3 Nordeste 0 -- -- 82
2019-02-15 00:00:00 3.7 0 Calma 2 Nordeste 0 -- -- 82
2019-02-14 23:00:00 4.1 0 Calma 2 Este 0 -- -- 81
2019-02-14 22:00:00 4.6 0 Calma 2 Este 0 -- -- 78
2019-02-14 21:00:00 5.4 0 Calma 2 Sudoeste 0 -- -- 74
2019-02-14 20:00:00 7 0 Calma 3 Nordeste 0 -- -- 67
2019-02-14 19:00:00 10.4 0 Calma 8 Sur 0 -- -- 57
2019-02-14 18:00:00 16.5 6 Sur 13 Sur 0 -- -- 36
2019-02-14 17:00:00 17.4 7 Sur 15 Sudoeste 0 -- -- 32
2019-02-14 16:00:00 17.4 6 Sur 16 Sur 0 -- -- 32
2019-02-14 15:00:00 17.3 9 Sur 16 Sur 0 -- -- 34
2019-02-14 14:00:00 16.4 7 Sur 16 Sur 0 -- -- 37
2019-02-14 13:00:00 15.3 8 Sur 14 Sur 0 -- -- 47
2019-02-14 12:00:00 13.8 5 Sur 10 Sur 0 -- -- 55
2019-02-14 11:00:00 11.7 5 Sur 9 Sudeste 0 -- -- 58
2019-02-14 10:00:00 7 0 Calma 2 Sudeste 0 -- -- 82
2019-02-14 09:00:00 1.3 0 Calma 3 Este 0 -- -- 92
2019-02-14 08:00:00 1.1 0 Calma 2 Nordeste 0 -- -- 89
2019-02-14 07:00:00 1.5 0 Calma 3 Este 0 -- -- 88
2019-02-14 06:00:00 1.7 2 Nordeste 5 Este 0 -- -- 87
2019-02-14 05:00:00 1.9 0 Calma 3 Este 0 -- -- 87
2019-02-14 04:00:00 2.2 0 Calma 3 Este 0 -- -- 87
2019-02-14 03:00:00 2.5 0 Calma 4 Nordeste 0 -- -- 87
2019-02-14 02:00:00 3.3 0 Calma 2 Oeste 0 -- -- 87
2019-02-14 01:00:00 3.7 0 Calma 3 Este 0 -- -- 86
2019-02-14 00:00:00 4 0 Calma 3 Este 0 -- -- 85
2019-02-13 23:00:00 4.2 0 Calma 2 Este 0 -- -- 86
2019-02-13 22:00:00 5.3 0 Calma 4 Este 0 -- -- 82
2019-02-13 21:00:00 6.4 2 Noroeste 3 Nordeste 0 -- -- 78
2019-02-13 20:00:00 7.9 0 Calma 6 Nordeste 0 -- -- 75
2019-02-13 19:00:00 11 0 Calma 6 Oeste 0 -- -- 63
2019-02-13 18:00:00 17.1 3 Sudoeste 13 Sudoeste 0 -- -- 44
2019-02-13 17:00:00 17.6 9 Sur 16 Sudoeste 0 -- -- 42
2019-02-13 16:00:00 17.9 9 Sur 18 Sur 0 -- -- 43
2019-02-13 15:00:00 17.6 8 Sur 17 Sudeste 0 -- -- 47
2019-02-13 14:00:00 17.3 7 Sur 14 Sudeste 0 -- -- 50
2019-02-13 13:00:00 15.9 7 Sur 12 Sudoeste 0.2 -- -- 57
2019-02-13 12:00:00 14.1 5 Sur 10 Sur 0 -- -- 63
2019-02-13 11:00:00 12.2 2 Sur 5 Sur 0 -- -- 68
2019-02-13 10:00:00 7.2 0 Calma 3 Este 0 -- -- 93
2019-02-13 09:00:00 2.4 0 Calma 4 Nordeste 0 -- -- 96
2019-02-13 08:00:00 2.1 0 Calma 3 Nordeste 0 -- -- 95
2019-02-13 07:00:00 2.1 0 Calma 7 Noroeste 0 -- -- 94
2019-02-13 06:00:00 2.3 0 Calma 4 Este 0 -- -- 94
2019-02-13 05:00:00 2.8 0 Calma 3 Nordeste 0 -- -- 94
2019-02-13 04:00:00 3.3 0 Calma 4 Este 0 -- -- 94
2019-02-13 03:00:00 3.4 0 Calma 4 Nordeste 0 -- -- 93
2019-02-13 02:00:00 4.1 0 Calma 4 Este 0 -- -- 92
2019-02-13 01:00:00 4.8 0 Calma 3 Nordeste 0 -- -- 93
2019-02-13 00:00:00 4.7 0 Calma 2 Este 0 -- -- 91
2019-02-12 23:00:00 5 0 Calma 3 Nordeste 0 -- -- 91
2019-02-12 22:00:00 5.6 0 Calma 2 Este 0 -- -- 88
2019-02-12 21:00:00 6.2 0 Calma 3 Nordeste 0 -- -- 84
2019-02-12 20:00:00 7.7 0 Calma 4 Nordeste 0 -- -- 80
2019-02-12 19:00:00 10.7 0 Calma 5 Oeste 0 -- -- 69
2019-02-12 18:00:00 15.5 5 Sudoeste 12 Sur 0 -- -- 52
2019-02-12 17:00:00 16.4 6 Sudoeste 15 Sudoeste 0 -- -- 50
2019-02-12 16:00:00 15.9 5 Sur 15 Sur 0 -- -- 51
2019-02-12 15:00:00 16.2 9 Sur 19 Sur 0 -- -- 51
2019-02-12 14:00:00 15.4 8 Sur 17 Sur 0 -- -- 53
2019-02-12 13:00:00 14.7 7 Sudeste 15 Sur 0 -- -- 56
2019-02-12 12:00:00 14 8 Sur 14 Sudoeste 0 -- -- 57
2019-02-12 11:00:00 12.3 6 Sudeste 14 Sudeste 0.2 -- -- 49
2019-02-12 10:00:00 9.7 0 Calma 12 Noroeste 0 -- -- 62
2019-02-12 09:00:00 2.8 2 Sur 8 Norte 0 -- -- 77
2019-02-12 08:00:00 5.1 5 Norte 17 Norte 0 -- -- 65
2019-02-12 07:00:00 6.2 8 Norte 16 Norte 0 -- -- 61
2019-02-12 06:00:00 5.1 3 Noroeste 13 Norte 0 -- -- 65
2019-02-12 05:00:00 4.8 5 Noroeste 15 Noroeste 0 -- -- 67
2019-02-12 04:00:00 7.2 8 Noroeste 16 Noroeste 0 -- -- 59
2019-02-12 03:00:00 7.4 7 Noroeste 18 Nordeste 0 -- -- 58
2019-02-12 02:00:00 8.7 10 Nordeste 24 Nordeste 0 -- -- 54
2019-02-12 01:00:00 8.2 7 Nordeste 18 Nordeste 0 -- -- 58
2019-02-12 00:00:00 6.7 5 Nordeste 11 Nordeste 0 -- -- 77
2019-02-11 23:00:00 7 0 Calma 10 Norte 0 -- -- 78
2019-02-11 22:00:00 7.2 2 Norte 8 Norte 0 -- -- 82
2019-02-11 21:00:00 6.7 0 Calma 9 Este 0 -- -- 83
2019-02-11 20:00:00 9.2 0 Calma 6 Este 0 -- -- 76
2019-02-11 19:00:00 11.7 0 Calma 5 Oeste 0 -- -- 70
2019-02-11 18:00:00 14.7 5 Sudoeste 13 Sur 0 -- -- 58
2019-02-11 17:00:00 14.2 4 Sudeste 11 Sur 0 -- -- 57
2019-02-11 16:00:00 14.3 4 Sur 12 Nordeste 0 -- -- 59
2019-02-11 15:00:00 15.6 5 Sudeste 21 Sudoeste 0.2 -- -- 55
2019-02-11 14:00:00 15.3 7 Sudoeste 18 Sudoeste 0 -- -- 58
2019-02-11 13:00:00 14.2 8 Sudoeste 18 Sudoeste 0 -- -- 65
2019-02-11 12:00:00 12.1 3 Oeste 9 Sudoeste 0 -- -- 76
2019-02-11 11:00:00 10.1 3 Sur 6 Sudeste 0 -- -- 91
2019-02-11 10:00:00 8.7 3 Sur 5 Sur 0 -- -- 95
2019-02-11 09:00:00 7.9 0 Calma 5 Este 0 -- -- 95
2019-02-11 08:00:00 7.9 0 Calma 4 Norte 0 -- -- 95
2019-02-11 07:00:00 7.8 0 Calma 4 Este 0.2 -- -- 94
2019-02-11 06:00:00 8.1 0 Calma 3 Nordeste 0 -- -- 94
2019-02-11 05:00:00 8.2 0 Calma 2 Oeste 0 -- -- 93
2019-02-11 04:00:00 8.1 0 Calma 3 Sudeste 0 -- -- 93
2019-02-11 03:00:00 8.1 0 Calma 3 Sur 0 -- -- 93
2019-02-11 02:00:00 8.1 0 Calma 2 Nordeste 0 -- -- 93
2019-02-11 01:00:00 8.2 0 Calma 4 Sudeste 0 -- -- 91
2019-02-11 00:00:00 8.4 0 Calma 4 Este 0 -- -- 88
2019-02-10 23:00:00 8.6 0 Calma 2 Nordeste 0 -- -- 86
2019-02-10 22:00:00 8.7 0 Calma 5 Sur 0 -- -- 85
2019-02-10 21:00:00 9 2 Sur 7 Sudeste 0 -- -- 83
2019-02-10 20:00:00 9.5 0 Calma 12 Sur 0 -- -- 81
2019-02-10 19:00:00 10.8 6 Sudoeste 13 Sudoeste 0 -- -- 75
2019-02-10 18:00:00 11.4 6 Sudoeste 19 Oeste 0 -- -- 70
2019-02-10 17:00:00 11.9 9 Sudoeste 22 Oeste 0 -- -- 67
2019-02-10 16:00:00 12.1 5 Sudoeste 20 Oeste 0 -- -- 66
2019-02-10 15:00:00 11.8 6 Sudoeste 24 Oeste 0 -- -- 66
2019-02-10 14:00:00 12.3 8 Sudoeste 25 Oeste 0 -- -- 64
2019-02-10 13:00:00 10 4 Sudeste 11 Sur 0 -- -- 76
2019-02-10 12:00:00 8 6 Sudeste 12 Sur 0 -- -- 87
2019-02-10 11:00:00 6.7 0 Calma 4 Sur 0 -- -- 94
2019-02-10 10:00:00 4.6 0 Calma 4 Sudoeste 0 -- -- 97
2019-02-10 09:00:00 2.2 0 Calma 5 Sudoeste 0 -- -- 96
2019-02-10 08:00:00 1.9 0 Calma 3 Sudoeste 0 -- -- 95
2019-02-10 07:00:00 2.4 0 Calma 6 Oeste 0 -- -- 94
2019-02-10 06:00:00 2.9 2 Nordeste 9 Sudoeste 0 -- -- 94
2019-02-10 05:00:00 2.7 2 Nordeste 7 Este 0 -- -- 94
2019-02-10 04:00:00 2.1 0 Calma 8 Nordeste 0 -- -- 95
2019-02-10 03:00:00 1.7 0 Calma 5 Este 0 -- -- 94
2019-02-10 02:00:00 1.6 0 Calma 4 Nordeste 0 -- -- 93
2019-02-10 01:00:00 2.1 0 Calma 4 Este 0 -- -- 93
2019-02-10 00:00:00 2.6 0 Calma 4 Nordeste 0 -- -- 91
2019-02-09 23:00:00 3.4 0 Calma 3 Nordeste 0 -- -- 89
2019-02-09 22:00:00 4.3 0 Calma 4 Nordeste 0 -- -- 89
2019-02-09 21:00:00 5.7 0 Calma 2 Oeste 0 -- -- 83
2019-02-09 20:00:00 7.1 0 Calma 6 Este 0 -- -- 80
2019-02-09 19:00:00 10 2 Nordeste 14 Sudoeste 0 -- -- 67
2019-02-09 18:00:00 14.2 8 Sudoeste 15 Sudeste 0 -- -- 52
2019-02-09 17:00:00 15.9 8 Sur 19 Sudoeste 0 -- -- 51
2019-02-09 16:00:00 17.1 7 Sur 19 Oeste 0 -- -- 48
2019-02-09 15:00:00 16.6 7 Sur 19 Sudeste 0 -- -- 45
2019-02-09 14:00:00 15.5 6 Sur 13 Sudeste 0 -- -- 44
2019-02-09 13:00:00 14 6 Sur 14 Sudeste 0 -- -- 54
2019-02-09 12:00:00 12.5 6 Sudeste 10 Sur 0 -- -- 59
2019-02-09 11:00:00 11.1 5 Sudeste 8 Sur 0 -- -- 63
2019-02-09 10:00:00 5.8 0 Calma 3 Este 0 -- -- 92
2019-02-09 09:00:00 1.2 0 Calma 4 Este 0 -- -- 95
2019-02-09 08:00:00 0.9 0 Calma 5 Nordeste 0 -- -- 94
2019-02-09 07:00:00 1.4 0 Calma 2 Nordeste 0 -- -- 95
2019-02-09 06:00:00 1.3 0 Calma 2 Nordeste 0 -- -- 94
2019-02-09 05:00:00 1.3 0 Calma 3 Nordeste 0 -- -- 94
2019-02-09 04:00:00 1.6 0 Calma 4 Nordeste 0 -- -- 93
2019-02-09 03:00:00 2.1 0 Calma 3 Nordeste 0 -- -- 91
2019-02-09 02:00:00 3.1 0 Calma 4 Nordeste 0 -- -- 90
2019-02-09 01:00:00 3.1 0 Calma 6 Noroeste 0 -- -- 89
2019-02-09 00:00:00 3.2 0 Calma 4 Norte 0 -- -- 89
2019-02-08 23:00:00 3.3 2 Este 3 Este 0 -- -- 87
2019-02-08 22:00:00 3.9 0 Calma 4 Este 0 -- -- 82
2019-02-08 21:00:00 4.7 0 Calma 3 Nordeste 0 -- -- 80
2019-02-08 20:00:00 6.3 0 Calma 3 Oeste 0 -- -- 72
2019-02-08 19:00:00 9.4 0 Calma 5 Sudoeste 0 -- -- 60
2019-02-08 18:00:00 15.8 3 Sudoeste 15 Sudoeste 0 -- -- 43
2019-02-08 17:00:00 17.6 8 Sudoeste 19 Sur 0 -- -- 37
2019-02-08 16:00:00 17.8 12 Sudoeste 22 Sudoeste 0 -- -- 33
2019-02-08 15:00:00 17.9 6 Sur 18 Sudoeste 0 -- -- 38
2019-02-08 14:00:00 17.2 12 Sudoeste 23 Sudoeste 0 -- -- 40
2019-02-08 13:00:00 16.1 6 Sur 14 Sudeste 0 -- -- 40
2019-02-08 12:00:00 14.5 6 Sur 10 Sudeste 0 -- -- 38
2019-02-08 11:00:00 12.7 3 Sudeste 5 Sudeste 0 -- -- 46
2019-02-08 10:00:00 5.7 0 Calma 2 Sudeste 0 -- -- 75
2019-02-08 09:00:00 0.4 0 Calma 3 Este 0 -- -- 85
2019-02-08 08:00:00 0.3 0 Calma 2 Nordeste 0 -- -- 81
2019-02-08 07:00:00 0.4 0 Calma 2 Norte 0 -- -- 83
2019-02-08 06:00:00 0.5 0 Calma 2 Nordeste 0 -- -- 82
2019-02-08 05:00:00 0.8 0 Calma 2 Nordeste 0 -- -- 82
2019-02-08 04:00:00 1.2 0 Calma 2 Este 0 -- -- 79
2019-02-08 03:00:00 1.3 0 Calma 6 Nordeste 0 -- -- 74
2019-02-08 02:00:00 1.7 2 Nordeste 5 Nordeste 0 -- -- 67
2019-02-08 01:00:00 1.8 2 Nordeste 10 Noroeste 0 -- -- 69
2019-02-08 00:00:00 2.1 0 Calma 5 Norte 0 -- -- 75
2019-02-07 23:00:00 2.7 2 Nordeste 5 Nordeste 0 -- -- 74
2019-02-07 22:00:00 3.1 0 Calma 4 Nordeste 0 -- -- 71
2019-02-07 21:00:00 4.4 2 Nordeste 5 Noroeste 0 -- -- 72
2019-02-07 20:00:00 9 7 Norte 12 Norte 0 -- -- 54
2019-02-07 19:00:00 10.5 5 Nordeste 10 Norte 0 -- -- 49
2019-02-07 18:00:00 15.5 5 Oeste 14 Sudoeste 0 -- -- 41
2019-02-07 17:00:00 17.2 12 Sudoeste 19 Sudoeste 0 -- -- 36
2019-02-07 16:00:00 18 8 Oeste 21 Sudoeste 0 -- -- 34
2019-02-07 15:00:00 17.7 8 Sudoeste 21 Oeste 0 -- -- 38
2019-02-07 14:00:00 17.2 5 Noroeste 17 Oeste 0 -- -- 36
2019-02-07 13:00:00 16.2 8 Oeste 25 Sudoeste 0 -- -- 38
2019-02-07 12:00:00 14.7 9 Sur 18 Sur 0 -- -- 52
2019-02-07 11:00:00 12.8 4 Oeste 13 Oeste 0 -- -- 53
2019-02-07 10:00:00 10 3 Sudoeste 9 Sur 0 -- -- 78
2019-02-07 09:00:00 3.9 2 Norte 8 Norte 0 -- -- 96
2019-02-07 08:00:00 2.7 0 Calma 4 Norte 0 -- -- 92
2019-02-07 07:00:00 3 3 Norte 6 Noroeste 0 -- -- 90
2019-02-07 06:00:00 3.6 0 Calma 8 Norte 0 -- -- 90
2019-02-07 05:00:00 3.9 0 Calma 9 Noroeste 0 -- -- 87
2019-02-07 04:00:00 2.7 4 Norte 9 Noroeste 0 -- -- 92
2019-02-07 03:00:00 3.3 0 Calma 2 Este 0 -- -- 92
2019-02-07 02:00:00 3.5 0 Calma 2 Nordeste 0 -- -- 89
2019-02-07 01:00:00 4.3 0 Calma 3 Este 0 -- -- 87
2019-02-07 00:00:00 4.9 0 Calma 2 Sudoeste 0 -- -- 87
2019-02-06 23:00:00 5 0 Calma 3 Noroeste 0 -- -- 86
2019-02-06 22:00:00 5.6 0 Calma 3 Nordeste 0 -- -- 86
2019-02-06 21:00:00 6.6 0 Calma 6 Norte 0 -- -- 80
2019-02-06 20:00:00 8.8 0 Calma 9 Norte 0 -- -- 71
2019-02-06 19:00:00 12.5 4 Noroeste 9 Noroeste 0 -- -- 59
2019-02-06 18:00:00 17.4 3 Oeste 13 Sudoeste 0 -- -- 44
2019-02-06 17:00:00 18.7 9 Sudoeste 15 Sudoeste 0 -- -- 41
2019-02-06 16:00:00 18.7 8 Sudoeste 16 Sudoeste 0 -- -- 42
2019-02-06 15:00:00 18.8 6 Sudoeste 15 Sur 0 -- -- 40
2019-02-06 14:00:00 17.9 3 Sudeste 15 Sudoeste 0 -- -- 39
2019-02-06 13:00:00 16.5 6 Sudeste 13 Sur 0 -- -- 44
2019-02-06 12:00:00 15.9 5 Sur 10 Sur 0 -- -- 49
2019-02-06 11:00:00 14.4 3 Sur 5 Sudeste 0 -- -- 57
2019-02-06 10:00:00 7.1 0 Calma 2 Sudeste 0 -- -- 82
2019-02-06 09:00:00 2.4 0 Calma 3 Este 0 -- -- 91
2019-02-06 08:00:00 2.3 0 Calma 3 Nordeste 0 -- -- 89
2019-02-06 07:00:00 2.9 0 Calma 5 Este 0 -- -- 88
2019-02-06 06:00:00 3.4 3 Sur 12 Norte 0 -- -- 85
2019-02-06 05:00:00 3.1 2 Sudeste 10 Noroeste 0 -- -- 87
2019-02-06 04:00:00 3.7 2 Este 8 Norte 0 -- -- 84
2019-02-06 03:00:00 5.6 3 Nordeste 8 Nordeste 0 -- -- 78
2019-02-06 02:00:00 3.9 2 Este 7 Noroeste 0 -- -- 85
2019-02-06 01:00:00 4.4 0 Calma 8 Noroeste 0 -- -- 84
2019-02-06 00:00:00 4.2 2 Nordeste 6 Norte 0 -- -- 85
2019-02-05 23:00:00 4.2 0 Calma 5 Norte 0 -- -- 82
2019-02-05 22:00:00 4.7 0 Calma 6 Nordeste 0 -- -- 80
2019-02-05 21:00:00 5.6 0 Calma 4 Este 0 -- -- 76
2019-02-05 20:00:00 6.7 0 Calma 4 Este 0 -- -- 72
2019-02-05 19:00:00 10.5 0 Calma 9 Norte 0 -- -- 58
2019-02-05 18:00:00 15 3 Nordeste 14 Este 0 -- -- 43
2019-02-05 17:00:00 16.3 8 Nordeste 17 Nordeste 0 -- -- 40
2019-02-05 16:00:00 16.6 9 Nordeste 22 Este 0 -- -- 38
2019-02-05 15:00:00 16.7 8 Este 21 Este 0 -- -- 38
2019-02-05 14:00:00 16.9 5 Norte 18 Este 0 -- -- 39
2019-02-05 13:00:00 15.9 7 Nordeste 16 Este 0 -- -- 40
2019-02-05 12:00:00 15.2 5 Sudeste 9 Sur 0 -- -- 42
2019-02-05 11:00:00 13.3 5 Sudeste 16 Este 0 -- -- 43
2019-02-05 10:00:00 11.3 3 Nordeste 11 Nordeste 0 -- -- 48
2019-02-05 09:00:00 2.8 3 Nordeste 10 Noroeste 0 -- -- 74
2019-02-05 08:00:00 5.3 4 Norte 11 Norte 0 -- -- 57
2019-02-05 07:00:00 1.3 0 Calma 3 Norte 0 -- -- 79
2019-02-05 06:00:00 1.5 0 Calma 4 Este 0 -- -- 75
2019-02-05 05:00:00 1.8 0 Calma 12 Norte 0 -- -- 74
2019-02-05 04:00:00 2.5 0 Calma 15 Norte 0 -- -- 74
2019-02-05 03:00:00 5.3 7 Norte 15 Norte 0 -- -- 56
2019-02-05 02:00:00 4.1 5 Norte 19 Noroeste 0 -- -- 65
2019-02-05 01:00:00 1.8 2 Este 14 Norte 0 -- -- 74
2019-02-05 00:00:00 2.3 2 Este 7 Nordeste 0 -- -- 74
2019-02-04 23:00:00 5.9 5 Norte 14 Noroeste 0 -- -- 59
2019-02-04 22:00:00 3.7 4 Norte 12 Noroeste 0 -- -- 69
2019-02-04 21:00:00 4.6 4 Noroeste 10 Norte 0 -- -- 65
2019-02-04 20:00:00 4.7 3 Nordeste 7 Este 0 -- -- 60
2019-02-04 19:00:00 7.1 2 Nordeste 6 Oeste 0 -- -- 56
2019-02-04 18:00:00 13.5 3 Noroeste 15 Sudoeste 0 -- -- 38
2019-02-04 17:00:00 14.8 8 Sudoeste 17 Sudoeste 0 -- -- 33
2019-02-04 16:00:00 14.7 4 Sudeste 12 Sur 0 -- -- 37
2019-02-04 15:00:00 13.7 6 Sur 12 Sur 0 -- -- 38
2019-02-04 14:00:00 12.5 4 Sur 12 Sur 0 -- -- 42
2019-02-04 13:00:00 10.2 7 Sur 13 Sur 0 -- -- 47
2019-02-04 12:00:00 9.2 3 Sur 7 Sur 0 -- -- 45
2019-02-04 11:00:00 6 4 Sur 10 Sudeste 0 -- -- 51
2019-02-04 10:00:00 4.7 0 Calma 18 Noroeste 0 -- -- 64
2019-02-04 09:00:00 1.5 5 Noroeste 16 Noroeste 0 -- -- 62
2019-02-04 08:00:00 -0.7 5 Noroeste 13 Noroeste 0 -- -- 74
2019-02-04 07:00:00 -3.5 2 Norte 10 Norte 0 -- -- 87
2019-02-04 06:00:00 -2.8 0 Calma 5 Nordeste 0 -- -- 84
2019-02-04 05:00:00 -2 0 Calma 6 Nordeste 0 -- -- 82
2019-02-04 04:00:00 -1.9 0 Calma 10 Nordeste 0 -- -- 81
2019-02-04 03:00:00 -1.7 0 Calma 6 Nordeste 0 -- -- 79
2019-02-04 02:00:00 -0.1 3 Nordeste 6 Nordeste 0 -- -- 74
2019-02-04 01:00:00 1.4 4 Norte 8 Norte 0 -- -- 66
2019-02-04 00:00:00 1.3 4 Noroeste 10 Noroeste 0 -- -- 66
2019-02-03 23:00:00 -0.4 0 Calma 6 Noroeste 0 -- -- 76
2019-02-03 22:00:00 -0.6 0 Calma 3 Norte 0 -- -- 77
2019-02-03 21:00:00 0.1 2 Nordeste 4 Nordeste 0 -- -- 75
2019-02-03 20:00:00 2.5 3 Noroeste 8 Norte 0 -- -- 66
2019-02-03 19:00:00 5.2 4 Norte 14 Norte 0 -- -- 49
2019-02-03 18:00:00 7.9 4 Nordeste 19 Nordeste 0 -- -- 42
2019-02-03 17:00:00 9.4 8 Nordeste 26 Nordeste 0 -- -- 38
2019-02-03 16:00:00 9.7 7 Oeste 23 Oeste 0 -- -- 39
2019-02-03 15:00:00 9.8 7 Nordeste 23 Noroeste 0 -- -- 42
2019-02-03 14:00:00 9.2 6 Norte 22 Noroeste 0 -- -- 41
2019-02-03 13:00:00 8.1 8 Norte 34 Norte 0.2 -- -- 44
2019-02-03 12:00:00 7.5 12 Nordeste 31 Norte 0 -- -- 46
2019-02-03 11:00:00 6.5 12 Nordeste 29 Este 0.2 -- -- 46
2019-02-03 10:00:00 4.6 8 Nordeste 22 Nordeste 0.4 -- -- 56
2019-02-03 09:00:00 -1.9 5 Noroeste 13 Norte 0 -- -- 87
2019-02-03 08:00:00 -2.7 0 Calma 5 Norte 0 -- -- 87
2019-02-03 07:00:00 -2 0 Calma 9 Norte 0 -- -- 82
2019-02-03 06:00:00 -0.1 4 Norte 10 Norte 0 -- -- 74
2019-02-03 05:00:00 -0.4 0 Calma 9 Nordeste 0 -- -- 77
2019-02-03 04:00:00 0.9 5 Nordeste 13 Este 0 -- -- 72
2019-02-03 03:00:00 1.2 5 Nordeste 14 Nordeste 0 -- -- 72
2019-02-03 02:00:00 0.6 3 Nordeste 10 Este 0 -- -- 74
2019-02-03 01:00:00 1.4 4 Nordeste 10 Nordeste 0 -- -- 72
2019-02-03 00:00:00 2.2 5 Nordeste 10 Nordeste 0 -- -- 69
2019-02-02 23:00:00 2.5 5 Este 13 Este 0 -- -- 69
2019-02-02 22:00:00 2.7 7 Este 13 Este 0 -- -- 69
2019-02-02 21:00:00 3.1 5 Este 10 Este 0 -- -- 61
2019-02-02 20:00:00 4.5 4 Nordeste 18 Noroeste 0 -- -- 56
2019-02-02 19:00:00 4.7 3 Este 9 Este 0 -- -- 66
2019-02-02 18:00:00 6.5 5 Oeste 19 Oeste 0 -- -- 60
2019-02-02 17:00:00 7.4 8 Oeste 28 Noroeste 0 -- -- 53
2019-02-02 16:00:00 8.5 11 Noroeste 28 Oeste 0 -- -- 51
2019-02-02 15:00:00 8.9 10 Oeste 30 Noroeste 0 -- -- 57
2019-02-02 14:00:00 8.3 8 Noroeste 27 Noroeste 0 -- -- 59
2019-02-02 13:00:00 7.6 13 Oeste 29 Noroeste 0 -- -- 60
2019-02-02 12:00:00 6.6 10 Oeste 26 Oeste 0 -- -- 63
2019-02-02 11:00:00 5.7 8 Oeste 28 Noroeste 0 -- -- 69
2019-02-02 10:00:00 3.3 6 Oeste 23 Noroeste 0 -- -- 75
2019-02-02 09:00:00 2.8 7 Nordeste 30 Noroeste 0 -- -- 77
2019-02-02 08:00:00 3.2 7 Noroeste 23 Noroeste 0 -- -- 78
2019-02-02 07:00:00 3.7 6 Oeste 31 Noroeste 0 -- -- 79
2019-02-02 06:00:00 4 6 Oeste 28 Oeste 0 -- -- 78
2019-02-02 05:00:00 4.3 8 Oeste 32 Noroeste 0 -- -- 78
2019-02-02 04:00:00 4 8 Sudoeste 34 Oeste 0 -- -- 84
2019-02-02 03:00:00 4 8 Oeste 36 Noroeste 0 -- -- 85
2019-02-02 02:00:00 4 14 Oeste 34 Oeste 0 -- -- 84
2019-02-02 01:00:00 3.9 7 Oeste 37 Noroeste 0 -- -- 83
2019-02-02 00:00:00 4.1 10 Oeste 33 Noroeste 0 -- -- 82
2019-02-01 23:00:00 3.8 6 Sudoeste 32 Oeste 0 -- -- 82
2019-02-01 22:00:00 4 8 Oeste 36 Sudoeste 0 -- -- 82
2019-02-01 21:00:00 4.4 11 Oeste 42 Sudoeste 0 -- -- 81
2019-02-01 20:00:00 4.8 13 Oeste 48 Oeste 0.2 -- -- 83
2019-02-01 19:00:00 4.6 16 Sudoeste 42 Oeste 0.8 -- -- 85
2019-02-01 18:00:00 5.9 19 Oeste 48 Oeste 0.4 -- -- 82
2019-02-01 17:00:00 6.3 14 Oeste 60 Sudoeste 0.6 -- -- 82
2019-02-01 16:00:00 8.5 14 Noroeste 45 Sudoeste 0.2 -- -- 69
2019-02-01 15:00:00 8.9 17 Oeste 38 Oeste 0 -- -- 66
2019-02-01 14:00:00 7.2 21 Oeste 45 Sudoeste 0.2 -- -- 79
2019-02-01 13:00:00 7.3 12 Oeste 49 Oeste 0 -- -- 76
2019-02-01 12:00:00 7.8 15 Oeste 33 Oeste 0 -- -- 76
2019-02-01 11:00:00 7.2 11 Oeste 50 Sudoeste 0 -- -- 78
2019-02-01 10:00:00 7.7 12 Oeste 38 Sudoeste 0 -- -- 82
2019-02-01 09:00:00 6.8 13 Oeste 49 Oeste 0.2 -- -- 86
2019-02-01 08:00:00 7.3 11 Oeste 42 Sudoeste 0.8 -- -- 89
2019-02-01 07:00:00 9.1 15 Oeste 36 Sudoeste 2.2 -- -- 92
2019-02-01 06:00:00 9.4 12 Oeste 45 Oeste 2.2 -- -- 90
2019-02-01 05:00:00 10.4 10 Nordeste 56 Sur 6.8 -- -- 91
2019-02-01 04:00:00 9.8 11 Sur 27 Sur 1.4 -- -- 94
2019-02-01 03:00:00 9.3 9 Sudeste 40 Sudeste 3 -- -- 94
2019-02-01 02:00:00 9.8 18 Sudeste 43 Sur 2.6 -- -- 90
2019-02-01 01:00:00 10 17 Sur 50 Sur 0 -- -- 89
2019-02-01 00:00:00 9.9 22 Sudoeste 48 Sur 0 -- -- 88
2019-01-31 23:00:00 10.2 21 Sur 62 Sur 0.4 -- -- 89
2019-01-31 22:00:00 9.8 8 Sur 41 Sudoeste 0 -- -- 92
2019-01-31 21:00:00 9.9 9 Sudeste 30 Sudoeste 0 -- -- 90
2019-01-31 20:00:00 10.1 20 Sur 42 Oeste 1.2 -- -- 92
2019-01-31 19:00:00 10 11 Sudoeste 24 Sudeste 0 -- -- 91
2019-01-31 18:00:00 10.4 10 Sur 34 Sudeste 0 -- -- 87
2019-01-31 17:00:00 10.6 9 Sudeste 42 Sur 0 -- -- 84
2019-01-31 16:00:00 10.1 9 Sur 32 Sudeste 0.6 -- -- 89
2019-01-31 15:00:00 10.4 10 Sur 39 Sudeste 0.2 -- -- 88
2019-01-31 14:00:00 10.3 4 Norte 39 Oeste 0 -- -- 88
2019-01-31 13:00:00 10.4 20 Sudoeste 44 Sudoeste 0 -- -- 87
2019-01-31 12:00:00 9.9 11 Oeste 37 Sudoeste 0.6 -- -- 90
2019-01-31 11:00:00 9.7 16 Oeste 36 Oeste 0.2 -- -- 88
2019-01-31 10:00:00 9.5 9 Noroeste 26 Norte 1.8 -- -- 94
2019-01-31 09:00:00 9.3 6 Norte 19 Norte 1.4 -- -- 94
2019-01-31 08:00:00 9 8 Este 17 Noroeste 2.4 -- -- 94
2019-01-31 07:00:00 9.1 6 Oeste 19 Oeste 1.4 -- -- 93
2019-01-31 06:00:00 8.9 4 Sur 25 Noroeste 1.4 -- -- 94
2019-01-31 05:00:00 8.9 11 Sudoeste 26 Oeste 1.8 -- -- 92
2019-01-31 04:00:00 8.8 13 Oeste 30 Oeste 2.2 -- -- 90
2019-01-31 03:00:00 8.5 9 Oeste 22 Oeste 2.8 -- -- 91
2019-01-31 02:00:00 8 8 Sur 35 Sur 4.2 -- -- 93
2019-01-31 01:00:00 7.9 9 Sur 46 Sudeste 2.8 -- -- 92
2019-01-31 00:00:00 7.9 9 Este 30 Sudeste 0.6 -- -- 92
2019-01-30 23:00:00 7.8 8 Este 27 Sudeste 1.6 -- -- 92
2019-01-30 22:00:00 7.5 8 Nordeste 27 Este 1.8 -- -- 93
2019-01-30 21:00:00 7 2 Nordeste 8 Este 2.6 -- -- 93
2019-01-30 20:00:00 6.9 4 Sudeste 27 Sudoeste 1 -- -- 91
2019-01-30 19:00:00 6.9 17 Sudoeste 32 Sudoeste 0 -- -- 88
2019-01-30 18:00:00 8.7 9 Sudoeste 28 Sudoeste 0 -- -- 71
2019-01-30 17:00:00 9.7 7 Oeste 29 Oeste 0 -- -- 64
2019-01-30 16:00:00 9.9 11 Oeste 32 Oeste 0 -- -- 63
2019-01-30 15:00:00 10 13 Sudoeste 28 Sudoeste 0 -- -- 57
2019-01-30 14:00:00 9.5 8 Oeste 23 Sudoeste 0 -- -- 61
2019-01-30 13:00:00 9.1 8 Oeste 24 Oeste 0 -- -- 64
2019-01-30 12:00:00 8.5 6 Noroeste 22 Noroeste 0 -- -- 67
2019-01-30 11:00:00 6.9 5 Oeste 20 Noroeste 0.2 -- -- 72
2019-01-30 10:00:00 6 5 Oeste 14 Oeste 0 -- -- 76
2019-01-30 09:00:00 4.4 0 Calma 8 Oeste 0 -- -- 85
2019-01-30 08:00:00 4.9 0 Calma 14 Oeste 0 -- -- 86
2019-01-30 07:00:00 5.5 6 Sudoeste 21 Oeste 0 -- -- 81
2019-01-30 06:00:00 6.2 5 Oeste 18 Oeste 0 -- -- 85
2019-01-30 05:00:00 6.9 4 Sudoeste 15 Norte 0 -- -- 82
2019-01-30 04:00:00 7.3 5 Norte 39 Oeste 0.2 -- -- 82
2019-01-30 03:00:00 7.6 8 Oeste 25 Sudoeste 0 -- -- 84
2019-01-30 02:00:00 7.8 9 Oeste 30 Oeste 0 -- -- 88
2019-01-30 01:00:00 7.7 8 Oeste 23 Sudoeste 0.2 -- -- 90
2019-01-30 00:00:00 7.7 9 Sudoeste 18 Oeste 0 -- -- 91
2019-01-29 23:00:00 7.8 2 Sudoeste 18 Sudoeste 0 -- -- 89
2019-01-29 22:00:00 8.2 8 Sudoeste 25 Sudoeste 0 -- -- 86
2019-01-29 21:00:00 8.5 7 Oeste 39 Oeste 0 -- -- 82
2019-01-29 20:00:00 8.7 13 Sudoeste 28 Oeste 0 -- -- 81
2019-01-29 19:00:00 8.9 13 Sudoeste 25 Sudoeste 0 -- -- 79
2019-01-29 18:00:00 9.1 7 Oeste 19 Oeste 0 -- -- 78
2019-01-29 17:00:00 9.2 8 Noroeste 35 Oeste 0 -- -- 76
2019-01-29 16:00:00 9 8 Noroeste 33 Sudoeste 0 -- -- 79
2019-01-29 15:00:00 9.4 10 Sudoeste 37 Sudoeste 0 -- -- 76
2019-01-29 14:00:00 8.9 10 Oeste 31 Sudoeste 0 -- -- 75
2019-01-29 13:00:00 10.6 11 Oeste 32 Oeste 0 -- -- 65
2019-01-29 12:00:00 9.2 13 Sudoeste 26 Sudoeste 0 -- -- 72
2019-01-29 11:00:00 7.7 10 Sudoeste 21 Sudoeste 0 -- -- 78
2019-01-29 10:00:00 5.9 3 Sur 13 Sudoeste 0 -- -- 88
2019-01-29 09:00:00 2.9 3 Nordeste 7 Este 0 -- -- 95
2019-01-29 08:00:00 1.8 0 Calma 6 Nordeste 0 -- -- 95
2019-01-29 07:00:00 2.1 3 Nordeste 5 Nordeste 0 -- -- 94
2019-01-29 06:00:00 2.5 0 Calma 4 Sudoeste 0 -- -- 92
2019-01-29 05:00:00 4 2 Nordeste 9 Nordeste 0 -- -- 88
2019-01-29 04:00:00 5.9 3 Oeste 15 Este 0 -- -- 87
2019-01-29 03:00:00 6.1 7 Este 16 Nordeste 0 -- -- 88
2019-01-29 02:00:00 6.2 8 Este 14 Este 0 -- -- 87
2019-01-29 01:00:00 6.3 2 Sudoeste 12 Nordeste 0 -- -- 83
2019-01-29 00:00:00 7.4 4 Este 14 Este 0 -- -- 81
2019-01-28 23:00:00 7.7 3 Sudeste 12 Oeste 0 -- -- 80
2019-01-28 22:00:00 7.8 0 Calma 10 Noroeste 0 -- -- 79
2019-01-28 21:00:00 8.6 4 Sudoeste 36 Oeste 0 -- -- 75
2019-01-28 20:00:00 9.4 4 Norte 23 Noroeste 0 -- -- 72
2019-01-28 19:00:00 9.8 6 Oeste 26 Oeste 0 -- -- 70
2019-01-28 18:00:00 9.9 5 Oeste 22 Oeste 0 -- -- 68
2019-01-28 17:00:00 9.8 8 Oeste 26 Sudoeste 0 -- -- 67
2019-01-28 16:00:00 10.7 10 Oeste 33 Noroeste 0 -- -- 62
2019-01-28 15:00:00 10.3 9 Oeste 28 Noroeste 0 -- -- 60
2019-01-28 14:00:00 11.3 12 Oeste 26 Oeste 0 -- -- 59
2019-01-28 13:00:00 10.4 8 Oeste 24 Oeste 0 -- -- 58
2019-01-28 12:00:00 8.5 6 Norte 17 Nordeste 0 -- -- 60
2019-01-28 11:00:00 5.9 3 Este 11 Sur 0 -- -- 73
2019-01-28 10:00:00 2.4 0 Calma 3 Nordeste 0 -- -- 85
2019-01-28 09:00:00 -1.1 0 Calma 7 Sudeste 0 -- -- 88
2019-01-28 08:00:00 1.4 4 Noroeste 10 Noroeste 0 -- -- 81
2019-01-28 07:00:00 1.3 3 Nordeste 9 Este 0 -- -- 84
2019-01-28 06:00:00 -0.8 0 Calma 7 Nordeste 0 -- -- 89
2019-01-28 05:00:00 0.1 2 Este 5 Noroeste 0 -- -- 87
2019-01-28 04:00:00 1 0 Calma 3 Noroeste 0 -- -- 85
2019-01-28 03:00:00 0.9 0 Calma 4 Nordeste 0 -- -- 89
2019-01-28 02:00:00 1.5 0 Calma 4 Noroeste 0 -- -- 85
2019-01-28 01:00:00 3.7 0 Calma 11 Nordeste 0 -- -- 75
2019-01-28 00:00:00 4.2 4 Nordeste 10 Nordeste 0 -- -- 74
2019-01-27 23:00:00 3.9 4 Nordeste 8 Nordeste 0 -- -- 77
2019-01-27 22:00:00 2.7 0 Calma 5 Nordeste 0 -- -- 81
2019-01-27 21:00:00 4.1 3 Norte 7 Norte 0 -- -- 75
2019-01-27 20:00:00 5.6 4 Norte 8 Noroeste 0 -- -- 70
2019-01-27 19:00:00 6.9 5 Nordeste 12 Oeste 0 -- -- 68
2019-01-27 18:00:00 8.8 4 Oeste 17 Noroeste 0 -- -- 62
2019-01-27 17:00:00 9.3 3 Oeste 21 Oeste 0 -- -- 63
2019-01-27 16:00:00 9.8 8 Oeste 18 Noroeste 0 -- -- 60
2019-01-27 15:00:00 12.1 7 Norte 31 Noroeste 0 -- -- 53
2019-01-27 14:00:00 11.4 14 Oeste 33 Oeste 0 -- -- 52
2019-01-27 13:00:00 11.1 10 Oeste 25 Sudoeste 0 -- -- 58
2019-01-27 12:00:00 10.9 10 Oeste 24 Noroeste 0 -- -- 61
2019-01-27 11:00:00 8.5 4 Sur 9 Sudeste 0 -- -- 77
2019-01-27 10:00:00 4.4 2 Sudeste 6 Sudeste 0 -- -- 91
2019-01-27 09:00:00 0.7 0 Calma 7 Sudeste 0 -- -- 93
2019-01-27 08:00:00 1.2 0 Calma 5 Este 0 -- -- 93
2019-01-27 07:00:00 2.5 0 Calma 6 Sudeste 0 -- -- 93
2019-01-27 06:00:00 2.8 0 Calma 12 Sur 0 -- -- 92
2019-01-27 05:00:00 3.2 2 Nordeste 7 Sudeste 0 -- -- 90
2019-01-27 04:00:00 2 0 Calma 10 Sudoeste 0 -- -- 90
2019-01-27 03:00:00 2.4 2 Nordeste 6 Nordeste 0 -- -- 87
2019-01-27 02:00:00 2.4 0 Calma 5 Nordeste 0 -- -- 88
2019-01-27 01:00:00 2.5 2 Nordeste 6 Oeste 0 -- -- 84
2019-01-27 00:00:00 2.6 0 Calma 5 Nordeste 0 -- -- 83
2019-01-26 23:00:00 2.7 0 Calma 6 Nordeste 0 -- -- 83
2019-01-26 22:00:00 3.4 0 Calma 4 Nordeste 0 -- -- 84
2019-01-26 21:00:00 4.8 2 Nordeste 5 Sudoeste 0 -- -- 80
2019-01-26 20:00:00 6.5 0 Calma 4 Sudoeste 0 -- -- 76
2019-01-26 19:00:00 9.5 0 Calma 6 Norte 0 -- -- 64
2019-01-26 18:00:00 14.9 0 Calma 12 Sudoeste 0 -- -- 50
2019-01-26 17:00:00 17.7 8 Sudoeste 15 Sur 0 -- -- 40
2019-01-26 16:00:00 18.2 8 Sudoeste 19 Sudeste 0 -- -- 39
2019-01-26 15:00:00 18 4 Sudoeste 12 Sur 0 -- -- 38
2019-01-26 14:00:00 17.1 5 Sur 10 Sur 0 -- -- 40
2019-01-26 13:00:00 16 4 Sur 10 Sur 0 -- -- 41
2019-01-26 12:00:00 14.4 4 Sur 10 Sudeste 0 -- -- 45
2019-01-26 11:00:00 12.5 3 Sur 11 Sudeste 0 -- -- 47
2019-01-26 10:00:00 11.2 7 Noroeste 24 Norte 0 -- -- 49
2019-01-26 09:00:00 8.8 8 Noroeste 23 Norte 0 -- -- 48
2019-01-26 08:00:00 8.8 6 Norte 23 Norte 0 -- -- 49
2019-01-26 07:00:00 7.5 10 Noroeste 21 Noroeste 0 -- -- 57
2019-01-26 06:00:00 8.4 8 Noroeste 21 Noroeste 0 -- -- 53
2019-01-26 05:00:00 7.4 6 Nordeste 18 Norte 0 -- -- 59
2019-01-26 04:00:00 8.2 8 Noroeste 32 Noroeste 0 -- -- 60
2019-01-26 03:00:00 9.1 10 Nordeste 23 Nordeste 0 -- -- 56
2019-01-26 02:00:00 7.6 3 Oeste 16 Nordeste 0 -- -- 61
2019-01-26 01:00:00 9.2 9 Norte 18 Nordeste 0 -- -- 55
2019-01-26 00:00:00 5.8 3 Nordeste 6 Nordeste 0 -- -- 71
2019-01-25 23:00:00 4.9 2 Norte 5 Este 0 -- -- 75
2019-01-25 22:00:00 5.5 0 Calma 8 Norte 0 -- -- 72
2019-01-25 21:00:00 6.1 3 Norte 7 Nordeste 0 -- -- 71
2019-01-25 20:00:00 7 2 Oeste 6 Nordeste 0 -- -- 69
2019-01-25 19:00:00 9.4 2 Nordeste 7 Este 0 -- -- 64
2019-01-25 18:00:00 14.6 4 Noroeste 11 Nordeste 0 -- -- 49
2019-01-25 17:00:00 16.6 5 Este 20 Noroeste 0 -- -- 43
2019-01-25 16:00:00 16.9 4 Nordeste 24 Este 0 -- -- 41
2019-01-25 15:00:00 16.4 8 Nordeste 28 Este 0 -- -- 44
2019-01-25 14:00:00 15.5 13 Este 24 Este 0 -- -- 47
2019-01-25 13:00:00 15.2 9 Nordeste 23 Nordeste 0 -- -- 49
2019-01-25 12:00:00 14 14 Nordeste 25 Nordeste 0 -- -- 52
2019-01-25 11:00:00 12.8 8 Este 26 Este 0 -- -- 57
2019-01-25 10:00:00 11.3 10 Este 26 Este 0 -- -- 63
2019-01-25 09:00:00 8.6 7 Nordeste 18 Noroeste 0 -- -- 72
2019-01-25 08:00:00 8.5 5 Nordeste 17 Este 0 -- -- 75
2019-01-25 07:00:00 6.3 4 Norte 11 Norte 0 -- -- 94
2019-01-25 06:00:00 4.3 0 Calma 5 Nordeste 0 -- -- 96
2019-01-25 05:00:00 4.3 0 Calma 4 Nordeste 0 -- -- 96
2019-01-25 04:00:00 4.5 0 Calma 3 Nordeste 0 -- -- 96
2019-01-25 03:00:00 4.3 0 Calma 3 Nordeste 0 -- -- 95
2019-01-25 02:00:00 4.6 0 Calma 6 Nordeste 0 -- -- 95
2019-01-25 01:00:00 4.6 0 Calma 3 Sudoeste 0 -- -- 95
2019-01-25 00:00:00 4.5 0 Calma 3 Nordeste 0 -- -- 94
2019-01-24 23:00:00 4.5 0 Calma 4 Este 0 -- -- 93
2019-01-24 22:00:00 5.2 0 Calma 3 Nordeste 0 -- -- 89
2019-01-24 21:00:00 6.2 0 Calma 5 Norte 0 -- -- 89
2019-01-24 20:00:00 9.3 6 Noroeste 9 Noroeste 0 -- -- 80
2019-01-24 19:00:00 10 2 Norte 9 Norte 0 -- -- 76
2019-01-24 18:00:00 13.7 0 Calma 12 Oeste 0 -- -- 64
2019-01-24 17:00:00 16.1 8 Sudoeste 20 Oeste 0 -- -- 57
2019-01-24 16:00:00 16.1 5 Noroeste 18 Este 0 -- -- 53
2019-01-24 15:00:00 16.4 6 Norte 18 Nordeste 0 -- -- 51
2019-01-24 14:00:00 15.2 8 Oeste 21 Noroeste 0 -- -- 54
2019-01-24 13:00:00 14 9 Oeste 22 Oeste 0 -- -- 60
2019-01-24 12:00:00 12.2 10 Oeste 24 Oeste 0 -- -- 69
2019-01-24 11:00:00 9.2 16 Sudoeste 27 Sudoeste 0 -- -- 81
2019-01-24 10:00:00 7.8 7 Oeste 21 Oeste 0 -- -- 85
2019-01-24 09:00:00 6.8 3 Sudoeste 13 Este 0 -- -- 89
2019-01-24 08:00:00 6.7 2 Sudeste 15 Oeste 0 -- -- 87
2019-01-24 07:00:00 7.1 4 Sur 14 Oeste 0 -- -- 87
2019-01-24 06:00:00 7.3 5 Este 14 Nordeste 0 -- -- 87
2019-01-24 05:00:00 7.5 4 Oeste 14 Nordeste 0 -- -- 86
2019-01-24 04:00:00 8.1 7 Este 18 Noroeste 0 -- -- 84
2019-01-24 03:00:00 8.3 7 Oeste 20 Noroeste 0 -- -- 84
2019-01-24 02:00:00 8.4 4 Noroeste 16 Noroeste 0 -- -- 84
2019-01-24 01:00:00 8.1 5 Este 18 Norte 0 -- -- 84
2019-01-24 00:00:00 8.1 6 Nordeste 21 Nordeste 0 -- -- 81